Time;durP1;ratioP1;P1;durP2;ratioP2;P2;SDS_P1;SDS_P2;PMS_P1;PMS_P2;Temp;Humidity;BMP_temperature;BMP_pressure;BME280_temperature;BME280_humidity;BME280_pressure;Samples;Min_cycle;Max_cycle;Signal;HPM_P1;HPM_P2
2020/12/06 04:22:05;;;;;;;3.60;2.25;;;;;;;18.24;51.30;100240.94;5859505;23;20030;-84
2020/12/06 04:24:31;;;;;;;4.78;2.78;;;;;;;18.30;51.57;100243.50;4890070;29;20040;-85
2020/12/06 06:55:56;;;;;;;3.03;2.33;;;;;;;17.75;50.63;100208.44;5715507;23;20057;-81
2020/12/06 07:06:00;;;;;;;2.65;2.10;;;;;;;18.25;50.40;100274.94;4999262;23;20061;-79
2020/12/06 07:08:26;;;;;;;4.30;2.45;;;;;;;18.02;50.47;100233.38;4925838;24;20804;-79
2020/12/06 07:13:24;;;;;;;6.72;3.78;;;;;;;18.14;50.60;100241.06;4869071;29;20060;-83
2020/12/06 07:15:50;;;;;;;6.82;4.55;;;;;;;18.26;50.99;100257.50;4841396;29;20022;-83
2020/12/06 07:23:30;;;;;;;7.70;3.38;;;;;;;18.18;51.25;100232.28;5236444;23;20057;-77
2020/12/06 07:25:55;;;;;;;5.70;3.53;;;;;;;18.31;51.05;100260.91;5139200;24;20041;-79
2020/12/06 07:28:27;;;;;;;6.32;3.72;;;;;;;18.28;51.47;100253.97;4840754;29;20058;-80
2020/12/06 07:35:09;;;;;;;9.82;3.85;;;;;;;18.41;51.44;100286.97;4884774;29;20065;-81
2020/12/06 07:47:19;;;;;;;6.70;3.40;;;;;;;18.12;51.62;100248.06;5495278;24;20073;-82
2020/12/06 07:54:59;;;;;;;10.00;3.97;;;;;;;18.13;51.41;100231.50;5053629;24;20061;-81
2020/12/06 07:57:47;;;;;;;6.97;3.05;;;;;;;18.38;51.45;100276.53;4845412;29;20188;-82
2020/12/06 08:00:16;;;;;;;7.20;3.45;;;;;;;18.16;52.05;100243.69;4849390;29;20017;-83
2020/12/06 08:07:57;;;;;;;8.32;4.18;;;;;;;18.17;51.77;100248.91;4993521;24;20061;-82
2020/12/06 08:10:25;;;;;;;5.10;3.65;;;;;;;18.26;51.53;100250.50;4852648;29;20072;-82
2020/12/06 08:12:53;;;;;;;6.30;3.00;;;;;;;18.21;51.37;100247.06;4879177;29;20058;-81
2020/12/06 08:15:23;;;;;;;5.93;3.03;;;;;;;18.16;51.24;100252.41;4856306;29;20024;-81
2020/12/06 08:17:50;;;;;;;6.20;3.28;;;;;;;18.26;51.58;100255.75;4942162;24;20119;-80
2020/12/06 08:20:18;;;;;;;5.00;3.85;;;;;;;18.23;51.17;100237.47;4797374;29;20195;-80
2020/12/06 08:23:02;;;;;;;7.05;3.15;;;;;;;18.54;51.41;100275.44;4870241;24;20061;-79
2020/12/06 08:25:46;;;;;;;4.93;3.53;;;;;;;18.51;51.26;100267.63;4982399;23;20054;-78
2020/12/06 08:28:19;;;;;;;6.32;3.42;;;;;;;18.51;51.65;100262.38;4839042;29;20022;-80
2020/12/06 08:30:45;;;;;;;6.13;2.70;;;;;;;18.49;51.51;100252.81;4846687;29;20094;-83
2020/12/06 08:33:10;;;;;;;4.95;3.00;;;;;;;18.39;51.27;100227.66;4829370;29;20398;-82
2020/12/06 08:35:36;;;;;;;5.45;3.08;;;;;;;18.54;51.30;100270.19;4824389;29;20124;-83
2020/12/06 08:38:33;;;;;;;5.80;3.75;;;;;;;18.24;51.57;100222.63;4822031;29;20050;-82
2020/12/06 08:41:08;;;;;;;3.50;2.25;;;;;;;18.60;51.47;100282.34;4832684;29;20030;-82
2020/12/06 08:43:46;;;;;;;3.35;2.88;;;;;;;18.48;51.35;100266.78;4809727;29;20512;-82
2020/12/06 08:46:14;;;;;;;5.25;3.03;;;;;;;18.45;51.55;100266.81;4829572;29;20030;-81
2020/12/06 08:48:41;;;;;;;6.30;3.00;;;;;;;18.48;51.46;100266.78;4830815;29;20041;-82
2020/12/06 08:51:22;;;;;;;4.00;2.83;;;;;;;18.31;51.41;100250.44;4818324;29;20061;-82
2020/12/06 08:53:47;;;;;;;4.72;2.85;;;;;;;18.35;51.55;100257.38;4821608;29;20022;-83
2020/12/06 08:56:35;;;;;;;6.32;3.75;;;;;;;18.61;51.45;100294.56;4823505;29;20075;-82
2020/12/06 08:59:13;;;;;;;4.13;2.80;;;;;;;18.40;51.49;100258.19;4836519;29;20079;-81
2020/12/06 09:01:52;;;;;;;5.40;2.55;;;;;;;18.49;51.40;100272.00;4813383;29;20031;-80
2020/12/06 09:04:18;;;;;;;3.42;2.58;;;;;;;18.52;51.19;100255.38;4826413;29;20477;-82
2020/12/06 09:06:45;;;;;;;4.53;3.00;;;;;;;18.45;51.00;100244.13;4817204;29;20430;-81
2020/12/06 09:09:11;;;;;;;4.65;3.03;;;;;;;18.54;51.30;100259.72;4812205;29;20034;-80
2020/12/06 09:11:36;;;;;;;4.30;2.70;;;;;;;18.63;51.05;100261.38;4827487;29;20045;-81
2020/12/06 09:14:02;;;;;;;5.07;3.15;;;;;;;18.69;51.17;100273.50;4800719;29;20065;-81
2020/12/06 09:16:28;;;;;;;4.97;2.47;;;;;;;18.62;51.15;100266.63;4811719;29;20066;-81
2020/12/06 09:18:53;;;;;;;4.78;2.75;;;;;;;18.56;51.22;100255.31;4814657;29;20485;-82
2020/12/06 09:21:20;;;;;;;5.20;2.35;;;;;;;18.54;51.21;100237.91;4818373;29;20030;-81
2020/12/06 09:23:45;;;;;;;3.88;2.30;;;;;;;18.65;51.30;100251.72;4833348;29;20113;-82
2020/12/06 09:26:11;;;;;;;3.70;2.00;;;;;;;18.62;51.22;100245.66;4833892;29;20085;-82
2020/12/06 09:28:36;;;;;;;4.10;2.35;;;;;;;18.80;51.42;100272.47;4817531;29;20102;-82
2020/12/06 09:31:02;;;;;;;4.38;2.40;;;;;;;18.72;51.30;100257.72;4824386;29;20034;-82
2020/12/06 09:33:27;;;;;;;3.38;2.28;;;;;;;18.63;51.55;100248.28;4838992;29;20038;-82
2020/12/06 09:35:53;;;;;;;4.65;2.63;;;;;;;18.61;51.73;100236.94;4835543;29;20086;-81
2020/12/06 09:38:18;;;;;;;3.47;2.42;;;;;;;18.68;51.55;100240.34;4812947;29;20042;-81
2020/12/06 09:40:44;;;;;;;3.45;2.33;;;;;;;18.71;51.51;100248.13;4831444;29;20033;-82
2020/12/06 09:43:10;;;;;;;3.65;2.38;;;;;;;18.56;51.45;100221.25;4831509;29;20082;-82
2020/12/06 09:45:35;;;;;;;2.88;2.22;;;;;;;18.75;51.53;100255.06;4815039;29;20082;-81
2020/12/06 09:48:01;;;;;;;3.40;2.40;;;;;;;18.51;51.49;100220.47;4805887;29;20030;-82
2020/12/06 09:50:27;;;;;;;2.55;1.77;;;;;;;18.59;51.71;100225.63;4820295;29;20493;-81
2020/12/06 09:52:52;;;;;;;3.42;2.25;;;;;;;18.70;51.66;100239.41;4820250;29;20397;-82
2020/12/06 09:55:18;;;;;;;3.45;2.10;;;;;;;18.56;51.54;100221.25;4832076;29;20030;-81
2020/12/06 09:57:43;;;;;;;2.95;2.00;;;;;;;18.81;51.82;100262.84;4820613;29;20799;-80
2020/12/06 10:00:09;;;;;;;3.10;2.10;;;;;;;18.81;51.69;100250.63;4816344;29;20397;-78
2020/12/06 10:02:34;;;;;;;2.88;2.30;;;;;;;18.64;51.89;100218.56;4814940;29;20056;-79
2020/12/06 10:05:00;;;;;;;3.08;2.00;;;;;;;18.81;51.65;100234.03;4851546;23;20012;-78
2020/12/06 10:07:25;;;;;;;2.50;1.80;;;;;;;18.91;51.76;100236.47;4829409;29;20094;-78
2020/12/06 10:09:52;;;;;;;3.83;2.75;;;;;;;18.79;51.93;100214.84;4823359;29;20033;-78
2020/12/06 10:12:18;;;;;;;3.13;2.10;;;;;;;18.69;52.26;100216.75;4824902;29;20034;-78
2020/12/06 10:14:44;;;;;;;3.80;2.25;;;;;;;18.79;52.16;100235.81;4813525;29;20398;-79
2020/12/06 10:17:09;;;;;;;2.85;1.73;;;;;;;18.71;52.15;100219.31;4837871;29;20018;-79
2020/12/06 10:19:35;;;;;;;2.90;2.17;;;;;;;18.67;52.21;100229.00;4830582;29;20099;-78
2020/12/06 10:22:00;;;;;;;4.60;2.03;;;;;;;18.75;52.17;100234.13;4809434;29;20050;-78
2020/12/06 10:24:25;;;;;;;3.38;2.47;;;;;;;18.94;51.98;100253.03;4807564;29;20042;-77
2020/12/06 10:26:56;;;;;;;4.10;2.35;;;;;;;18.94;52.35;100248.66;4789329;29;20023;-77
2020/12/06 10:29:22;;;;;;;2.42;2.08;;;;;;;18.94;52.07;100235.56;4804637;29;20053;-79
2020/12/06 10:31:54;;;;;;;2.40;1.95;;;;;;;18.98;52.05;100220.63;4821835;29;20034;-79
2020/12/06 10:34:21;;;;;;;2.38;2.08;;;;;;;18.96;52.46;100222.41;4809705;29;20066;-79
2020/12/06 10:36:56;;;;;;;3.35;2.55;;;;;;;18.91;52.28;100205.03;4822016;29;20029;-78
2020/12/06 10:39:23;;;;;;;2.40;1.77;;;;;;;18.98;52.05;100191.81;4822852;29;20038;-79
2020/12/06 10:41:53;;;;;;;2.70;2.10;;;;;;;18.99;52.27;100188.31;4820221;29;20030;-78
2020/12/06 10:44:19;;;;;;;3.10;2.25;;;;;;;18.93;52.08;100181.44;4818321;29;20486;-77
2020/12/06 10:46:45;;;;;;;2.30;1.63;;;;;;;18.97;52.14;100177.84;4807937;29;20057;-79
2020/12/06 10:49:12;;;;;;;2.95;2.22;;;;;;;19.04;52.19;100197.84;4822325;29;20485;-78
2020/12/06 10:51:38;;;;;;;3.60;2.25;;;;;;;19.00;52.22;100193.53;4799727;29;20037;-79
2020/12/06 10:54:04;;;;;;;2.85;2.05;;;;;;;19.00;52.50;100184.81;4819825;29;20124;-79
2020/12/06 10:56:29;;;;;;;2.80;1.88;;;;;;;19.03;52.21;100195.22;4805717;29;20026;-79
2020/12/06 10:58:55;;;;;;;2.95;2.28;;;;;;;19.01;52.16;100207.50;4790152;29;20778;-79
2020/12/06 11:01:31;;;;;;;2.35;1.70;;;;;;;19.04;52.23;100196.97;4799385;29;20040;-81
2020/12/06 11:03:57;;;;;;;3.25;2.15;;;;;;;18.90;52.24;100177.09;4822573;29;20496;-79
2020/12/06 11:06:23;;;;;;;2.58;2.10;;;;;;;18.91;52.15;100193.69;4825323;29;20046;-80
2020/12/06 11:08:49;;;;;;;2.78;1.92;;;;;;;18.90;52.36;100181.47;4827325;29;20038;-78
2020/12/06 11:11:26;;;;;;;3.17;1.95;;;;;;;18.81;52.36;100155.44;4826397;29;20038;-81
2020/12/06 11:13:52;;;;;;;2.63;1.92;;;;;;;18.96;52.16;100188.34;4813331;29;20042;-78
2020/12/06 11:16:18;;;;;;;3.90;1.77;;;;;;;19.04;52.42;100191.72;4817062;29;20038;-78
2020/12/06 11:18:45;;;;;;;2.90;1.95;;;;;;;19.12;52.18;100202.94;4795477;29;20130;-79
2020/12/06 11:21:10;;;;;;;2.83;2.03;;;;;;;19.10;52.33;100196.84;4823974;29;20091;-78
2020/12/06 11:23:54;;;;;;;3.05;2.28;;;;;;;19.06;52.55;100201.28;4810487;29;20443;-79
2020/12/06 11:26:20;;;;;;;3.45;2.35;;;;;;;19.17;52.15;100207.22;4812571;29;20610;-78
2020/12/06 11:28:46;;;;;;;3.38;2.38;;;;;;;19.10;52.24;100213.44;4836583;29;20108;-79
2020/12/06 11:31:12;;;;;;;3.00;1.77;;;;;;;19.07;52.27;100203.03;4811440;29;20125;-79
2020/12/06 11:33:38;;;;;;;2.10;1.70;;;;;;;19.13;52.05;100195.03;4821380;29;20046;-79
2020/12/06 11:36:04;;;;;;;2.70;2.20;;;;;;;19.08;52.19;100201.28;4812171;29;20500;-78
2020/12/06 11:38:29;;;;;;;2.28;1.85;;;;;;;19.01;52.40;100199.63;4818568;29;20045;-78
2020/12/06 11:40:55;;;;;;;2.65;1.98;;;;;;;19.19;52.26;100222.91;4814095;29;20041;-78
2020/12/06 11:43:20;;;;;;;4.53;2.17;;;;;;;19.17;52.26;100227.31;4841884;29;20036;-80
2020/12/06 11:45:46;;;;;;;2.40;1.77;;;;;;;19.16;52.60;100243.94;4838313;29;20046;-77
2020/12/06 11:48:14;;;;;;;2.33;1.80;;;;;;;19.20;53.09;100235.13;4807989;29;20038;-80
2020/12/06 11:50:40;;;;;;;4.07;1.92;;;;;;;19.22;53.05;100239.44;4832066;29;20095;-76
2020/12/06 11:53:05;;;;;;;3.30;1.95;;;;;;;19.21;53.21;100242.94;4802909;29;20479;-73
2020/12/06 11:55:31;;;;;;;4.00;2.92;;;;;;;19.26;52.93;100235.88;4794013;29;20038;-74
2020/12/06 11:57:56;;;;;;;13.77;10.18;;;;;;;19.22;52.90;100238.56;4825434;29;20121;-76
2020/12/06 12:00:22;;;;;;;30.67;27.40;;;;;;;19.19;53.20;100251.75;4832902;29;20094;-75
2020/12/06 12:02:47;;;;;;;31.13;25.67;;;;;;;19.19;53.03;100238.63;4825349;29;20486;-76
2020/12/06 12:05:12;;;;;;;29.17;24.52;;;;;;;19.26;53.37;100251.59;4825005;29;20175;-76
2020/12/06 12:07:38;;;;;;;26.17;22.85;;;;;;;19.21;53.24;100253.41;4823895;29;20542;-76
2020/12/06 12:10:04;;;;;;;25.17;22.48;;;;;;;19.22;53.30;100256.91;4812697;29;20041;-75
2020/12/06 12:12:30;;;;;;;27.33;22.63;;;;;;;19.25;53.43;100257.72;4810031;29;20395;-75
2020/12/06 12:14:55;;;;;;;23.67;21.08;;;;;;;19.11;53.28;100245.75;4825087;29;20067;-77
2020/12/06 12:17:21;;;;;;;22.17;19.40;;;;;;;19.23;53.50;100262.13;4824114;29;20035;-76
2020/12/06 12:19:46;;;;;;;21.95;17.67;;;;;;;19.19;53.36;100250.00;4809655;29;20174;-77
2020/12/06 12:22:13;;;;;;;19.98;17.55;;;;;;;19.25;53.15;100269.97;4809943;29;20045;-77
2020/12/06 12:24:38;;;;;;;19.73;17.65;;;;;;;19.23;53.35;100271.75;4826601;29;20045;-82
2020/12/06 12:27:04;;;;;;;18.92;16.90;;;;;;;19.24;52.18;100260.38;4827122;29;20030;-79
2020/12/06 12:29:29;;;;;;;21.73;16.17;;;;;;;19.21;52.09;100257.84;4797122;29;20046;-80
2020/12/06 12:31:55;;;;;;;20.05;15.93;;;;;;;19.12;52.78;100245.72;4821593;29;20855;-79
2020/12/06 12:34:23;;;;;;;17.25;15.45;;;;;;;19.08;53.10;100225.72;4816119;29;20163;-75
2020/12/06 12:36:49;;;;;;;15.05;13.25;;;;;;;19.15;52.94;100223.84;4814308;29;20034;-76
2020/12/06 12:39:14;;;;;;;16.50;14.63;;;;;;;19.16;53.09;100225.59;4823246;29;20129;-78
2020/12/06 12:41:41;;;;;;;16.55;13.90;;;;;;;19.20;52.93;100235.13;4819651;29;20046;-77
2020/12/06 12:44:08;;;;;;;15.50;11.90;;;;;;;19.25;52.66;100228.91;4807491;29;20030;-78
2020/12/06 12:46:35;;;;;;;14.55;12.73;;;;;;;19.24;52.67;100228.91;4829225;29;20062;-79
2020/12/06 12:49:02;;;;;;;15.25;12.98;;;;;;;19.13;52.73;100215.16;4820750;29;20026;-78
2020/12/06 12:51:28;;;;;;;14.25;11.98;;;;;;;19.11;52.62;100198.56;4756073;30;20050;-79
2020/12/06 12:53:54;;;;;;;11.98;10.55;;;;;;;19.05;52.66;100189.09;4772675;30;20887;-80
2020/12/06 12:56:20;;;;;;;11.85;10.43;;;;;;;19.12;52.61;100206.41;4769848;30;20039;-80
2020/12/06 12:58:45;;;;;;;12.70;10.57;;;;;;;19.08;52.66;100190.78;4784409;30;20039;-80
2020/12/06 13:01:10;;;;;;;12.48;11.05;;;;;;;19.24;52.57;100205.31;4763478;30;20057;-77
2020/12/06 13:03:36;;;;;;;12.88;9.70;;;;;;;19.12;52.39;100192.44;4736247;29;20572;-77
2020/12/06 13:06:10;;;;;;;12.65;10.45;;;;;;;19.13;52.71;100204.66;4772982;30;20043;-76
2020/12/06 13:08:36;;;;;;;10.18;9.15;;;;;;;19.21;52.44;100210.66;4770532;30;20128;-76
2020/12/06 13:11:01;;;;;;;11.85;8.63;;;;;;;19.20;52.14;100220.25;4743791;30;20187;-76
2020/12/06 13:13:27;;;;;;;10.88;9.20;;;;;;;19.11;52.45;100209.91;4771883;30;20046;-76
2020/12/06 13:15:52;;;;;;;9.63;8.63;;;;;;;19.22;52.37;100218.47;4742849;29;20229;-76
2020/12/06 13:18:17;;;;;;;11.20;9.10;;;;;;;19.23;52.34;100214.94;4782179;29;20047;-77
2020/12/06 13:20:45;;;;;;;9.93;8.13;;;;;;;19.20;52.44;100214.16;4742217;30;20043;-77
2020/12/06 13:23:11;;;;;;;10.35;7.93;;;;;;;19.32;52.45;100216.56;4794342;29;20139;-77
2020/12/06 13:25:36;;;;;;;11.73;8.20;;;;;;;19.28;52.38;100217.50;4822668;29;20121;-77
2020/12/06 13:28:01;;;;;;;8.70;7.80;;;;;;;19.25;52.52;100220.16;4820542;29;20082;-76
2020/12/06 13:30:27;;;;;;;8.82;7.90;;;;;;;19.27;52.52;100223.63;4800912;29;20243;-77
2020/12/06 13:32:52;;;;;;;8.80;7.53;;;;;;;19.26;52.41;100225.38;4797469;29;20046;-77
2020/12/06 13:35:17;;;;;;;11.70;7.35;;;;;;;19.23;52.38;100225.44;4795744;29;20041;-77
2020/12/06 13:37:43;;;;;;;8.85;7.40;;;;;;;19.26;52.59;100232.38;4806756;29;20030;-77
2020/12/06 13:40:08;;;;;;;11.40;7.63;;;;;;;19.25;52.56;100228.91;4810960;29;20061;-76
2020/12/06 13:42:33;;;;;;;12.23;6.65;;;;;;;19.23;52.43;100224.56;4795252;29;20063;-77
2020/12/06 13:44:59;;;;;;;12.85;6.78;;;;;;;19.25;52.52;100220.16;4809711;29;20066;-77
2020/12/06 13:47:24;;;;;;;6.65;5.95;;;;;;;19.25;52.39;100222.78;4806192;29;20026;-77
2020/12/06 13:49:51;;;;;;;6.90;6.18;;;;;;;19.25;52.27;100231.50;4808003;29;20058;-77
2020/12/06 13:52:16;;;;;;;6.40;5.60;;;;;;;19.19;52.54;100225.53;4794160;29;20090;-77
2020/12/06 13:54:45;;;;;;;6.53;5.82;;;;;;;19.15;52.48;100215.97;4807433;29;20034;-78
2020/12/06 13:57:13;;;;;;;8.23;6.65;;;;;;;19.22;52.41;100217.59;4822368;29;20035;-78
2020/12/06 13:59:39;;;;;;;7.70;6.45;;;;;;;19.19;52.37;100223.78;4806593;29;20129;-78
2020/12/06 14:02:04;;;;;;;6.88;6.20;;;;;;;19.20;52.26;100216.78;4803223;29;20121;-78
2020/12/06 14:04:29;;;;;;;6.85;6.13;;;;;;;19.26;52.12;100221.91;4805234;29;20497;-78
2020/12/06 14:06:55;;;;;;;7.53;5.07;;;;;;;19.23;52.17;100217.56;4806896;29;20471;-78
2020/12/06 14:09:20;;;;;;;6.22;5.55;;;;;;;19.31;52.24;100222.69;4805314;29;20058;-78
2020/12/06 14:11:45;;;;;;;7.03;5.80;;;;;;;19.26;52.08;100219.28;4783580;29;20039;-78
2020/12/06 14:14:13;;;;;;;5.97;5.18;;;;;;;19.21;52.25;100221.13;4792750;29;20045;-77
2020/12/06 14:16:39;;;;;;;6.97;5.97;;;;;;;19.32;51.98;100223.56;4810017;29;20397;-78
2020/12/06 14:19:04;;;;;;;6.93;5.28;;;;;;;19.30;52.26;100226.19;4808301;29;20491;-78
2020/12/06 14:21:30;;;;;;;6.55;5.82;;;;;;;19.20;52.18;100215.03;4777229;29;20039;-78
2020/12/06 14:23:55;;;;;;;8.18;5.28;;;;;;;19.25;52.17;100209.69;4793190;29;20034;-78
2020/12/06 14:26:20;;;;;;;5.72;4.85;;;;;;;19.26;52.29;100211.41;4821061;29;20034;-78
2020/12/06 14:28:46;;;;;;;6.38;5.75;;;;;;;19.26;51.99;100216.66;4823973;29;20031;-77
2020/12/06 14:31:12;;;;;;;5.72;5.13;;;;;;;19.26;52.00;100200.94;4798800;29;20086;-77
2020/12/06 14:33:38;;;;;;;6.28;5.13;;;;;;;19.27;51.87;100200.91;4793960;29;20482;-77
2020/12/06 14:36:03;;;;;;;5.30;4.38;;;;;;;19.22;51.91;100199.25;4797439;29;20460;-78
2020/12/06 14:38:29;;;;;;;5.35;4.22;;;;;;;19.23;52.47;100199.22;4820069;29;20125;-78
2020/12/06 14:40:54;;;;;;;4.82;4.32;;;;;;;19.28;52.12;100196.53;4802577;29;20030;-78
2020/12/06 14:43:20;;;;;;;5.05;4.13;;;;;;;19.26;51.99;100204.41;4778061;29;20075;-78
2020/12/06 14:45:45;;;;;;;6.85;5.07;;;;;;;19.21;52.06;100190.50;4799554;29;20039;-78
2020/12/06 14:48:10;;;;;;;4.53;3.90;;;;;;;19.30;52.02;100192.13;4777215;29;20425;-78
2020/12/06 14:50:36;;;;;;;4.68;4.03;;;;;;;19.17;51.73;100167.03;4792994;29;20045;-78
2020/12/06 14:53:02;;;;;;;4.18;3.78;;;;;;;19.19;51.94;100180.97;4807701;29;20038;-78
2020/12/06 14:55:27;;;;;;;6.13;4.35;;;;;;;19.13;52.18;100171.44;4807520;29;20393;-78
2020/12/06 14:57:59;;;;;;;5.00;4.18;;;;;;;19.13;52.13;100174.06;4783318;29;20487;-78
2020/12/06 15:00:24;;;;;;;4.75;3.95;;;;;;;19.05;52.25;100167.25;4810506;29;20035;-78
2020/12/06 15:02:49;;;;;;;4.30;3.90;;;;;;;19.05;52.32;100168.13;4813702;29;20058;-78
2020/12/06 15:05:15;;;;;;;6.55;4.38;;;;;;;19.03;52.24;100167.28;4796746;29;20058;-78
2020/12/06 15:07:44;;;;;;;5.15;4.65;;;;;;;19.05;52.28;100173.34;4796876;29;20670;-77
2020/12/06 15:10:10;;;;;;;6.35;3.80;;;;;;;19.13;52.23;100167.97;4826141;29;20030;-77
2020/12/06 15:12:35;;;;;;;5.95;4.13;;;;;;;19.12;51.88;100169.72;4811026;29;20129;-78
2020/12/06 15:15:00;;;;;;;6.22;4.38;;;;;;;19.14;52.02;100161.84;4827766;29;20042;-79
2020/12/06 15:17:26;;;;;;;5.60;4.25;;;;;;;19.17;51.71;100167.91;4810379;29;20113;-78
2020/12/06 15:19:51;;;;;;;5.95;3.90;;;;;;;19.13;51.64;100167.97;4813894;29;20042;-78
2020/12/06 15:22:17;;;;;;;4.70;3.72;;;;;;;19.15;51.93;100163.56;4795714;29;20030;-78
2020/12/06 15:24:42;;;;;;;10.45;4.53;;;;;;;19.26;51.80;100158.97;4795901;29;20027;-79
2020/12/06 15:27:07;;;;;;;11.35;4.57;;;;;;;19.23;52.07;100152.03;4797194;29;20035;-79
2020/12/06 15:29:33;;;;;;;9.95;4.30;;;;;;;19.17;52.01;100157.41;4827833;29;20046;-79
2020/12/06 15:31:58;;;;;;;8.88;3.70;;;;;;;19.27;52.17;100166.81;4792043;29;20075;-77
2020/12/06 15:34:23;;;;;;;7.38;4.45;;;;;;;19.23;52.43;100166.91;4812709;29;20038;-78
2020/12/06 15:36:49;;;;;;;9.10;4.40;;;;;;;19.18;52.23;100159.13;4816479;29;20422;-77
2020/12/06 15:39:14;;;;;;;7.60;4.50;;;;;;;19.13;52.36;100149.63;4802097;29;20053;-77
2020/12/06 15:41:40;;;;;;;8.20;3.88;;;;;;;19.13;52.24;100160.97;4811109;29;20129;-77
2020/12/06 15:44:06;;;;;;;7.57;4.05;;;;;;;19.22;52.50;100181.75;4811353;29;20034;-78
2020/12/06 15:46:31;;;;;;;8.50;4.00;;;;;;;19.19;52.13;100179.22;4814121;29;20056;-77
2020/12/06 15:48:57;;;;;;;6.55;4.57;;;;;;;19.22;52.38;100186.13;4824780;29;20052;-77
2020/12/06 15:51:22;;;;;;;4.28;3.85;;;;;;;19.14;52.62;100173.19;4808602;29;20043;-76
2020/12/06 15:53:48;;;;;;;8.38;4.13;;;;;;;19.25;52.40;100176.47;4797465;29;20038;-77
2020/12/06 15:56:22;;;;;;;4.32;3.83;;;;;;;19.27;52.26;100184.31;4808378;29;20069;-76
2020/12/06 15:58:48;;;;;;;9.35;4.10;;;;;;;19.21;52.41;100168.72;4821542;29;20034;-76
2020/12/06 16:01:14;;;;;;;5.28;3.90;;;;;;;19.24;52.24;100173.88;4817049;29;20073;-76
2020/12/06 16:03:41;;;;;;;5.05;3.70;;;;;;;19.25;52.28;100179.09;4811930;29;20062;-76
2020/12/06 16:06:17;;;;;;;4.35;3.53;;;;;;;19.22;52.17;100168.66;4824434;29;20057;-75
2020/12/06 16:08:43;;;;;;;4.40;3.50;;;;;;;19.27;52.37;100163.34;4831565;29;20061;-77
2020/12/06 16:11:13;;;;;;;6.43;3.95;;;;;;;19.21;52.30;100155.59;4822265;29;20034;-77
2020/12/06 16:13:39;;;;;;;4.82;3.63;;;;;;;19.22;52.33;100152.06;4827233;29;20040;-77
2020/12/06 16:16:12;;;;;;;3.88;3.20;;;;;;;19.28;52.18;100154.59;4839805;29;20038;-77
2020/12/06 16:18:38;;;;;;;8.82;3.67;;;;;;;19.26;52.13;100148.50;4824627;29;20121;-77
2020/12/06 16:21:08;;;;;;;4.47;3.22;;;;;;;19.25;52.22;100162.50;4809360;29;20133;-76
2020/12/06 16:23:38;;;;;;;5.97;3.50;;;;;;;19.26;52.28;100153.75;4824178;29;20038;-77
2020/12/06 16:26:05;;;;;;;4.70;3.40;;;;;;;19.22;51.98;100141.56;4809205;29;20042;-77
2020/12/06 16:28:33;;;;;;;5.70;3.30;;;;;;;19.27;52.18;100142.38;4806152;29;20038;-77
2020/12/06 16:30:59;;;;;;;8.18;3.83;;;;;;;19.13;51.98;100118.16;4835171;29;20381;-76
2020/12/06 16:33:25;;;;;;;5.18;3.53;;;;;;;19.30;51.99;100142.31;4812394;29;20038;-76
2020/12/06 16:35:51;;;;;;;3.38;3.03;;;;;;;19.28;52.04;100144.09;4823742;29;20393;-77
2020/12/06 16:38:17;;;;;;;4.93;3.10;;;;;;;19.24;52.09;100129.31;4822550;29;20030;-77
2020/12/06 16:40:43;;;;;;;4.80;2.83;;;;;;;19.27;51.98;100127.50;4818785;29;20034;-77
2020/12/06 16:43:08;;;;;;;6.53;3.95;;;;;;;19.30;51.93;100133.59;4808120;29;20090;-78
2020/12/06 16:45:34;;;;;;;4.90;2.95;;;;;;;19.22;51.93;100125.84;4794302;29;20046;-77
2020/12/06 16:47:59;;;;;;;4.18;3.50;;;;;;;19.28;51.73;100131.00;4793884;29;20041;-78
2020/12/06 16:50:25;;;;;;;3.13;2.83;;;;;;;19.27;51.93;100132.75;4808853;29;20497;-78
2020/12/06 16:52:50;;;;;;;4.20;2.65;;;;;;;19.11;51.83;100099.84;4821917;29;20078;-77
2020/12/06 16:55:16;;;;;;;3.88;3.10;;;;;;;19.39;51.77;100141.25;4801743;29;20431;-77
2020/12/06 16:57:42;;;;;;;7.78;4.30;;;;;;;19.24;52.22;100131.94;4801943;29;20091;-77
2020/12/06 17:00:10;;;;;;;5.60;3.35;;;;;;;19.32;52.07;100151.00;4821355;29;20038;-77
2020/12/06 17:02:36;;;;;;;4.78;2.67;;;;;;;19.39;51.83;100150.00;4821591;29;20140;-78
2020/12/06 17:05:10;;;;;;;4.68;3.67;;;;;;;19.33;52.28;100151.88;4821897;29;20549;-78
2020/12/06 17:07:38;;;;;;;3.60;2.65;;;;;;;19.33;52.21;100163.25;4807155;29;20149;-77
2020/12/06 17:10:04;;;;;;;8.20;3.47;;;;;;;19.35;52.15;100145.69;4823168;29;20044;-78
2020/12/06 17:12:30;;;;;;;4.93;2.60;;;;;;;19.34;52.28;100161.47;4823786;29;20089;-78
2020/12/06 17:14:55;;;;;;;2.80;2.33;;;;;;;19.32;52.04;100164.13;4823628;29;20057;-78
2020/12/06 17:17:21;;;;;;;3.78;3.17;;;;;;;19.39;52.11;100167.47;4793575;29;20034;-78
2020/12/06 17:19:46;;;;;;;3.35;2.75;;;;;;;19.38;52.31;100184.97;4808798;29;20125;-77
2020/12/06 17:22:13;;;;;;;4.40;3.38;;;;;;;19.36;52.41;100183.25;4793484;29;20395;-77
2020/12/06 17:24:40;;;;;;;3.47;3.03;;;;;;;19.42;52.11;100199.75;4815819;29;20034;-77
2020/12/06 17:27:09;;;;;;;3.97;2.70;;;;;;;19.36;52.18;100197.22;4807386;29;20059;-78
2020/12/06 17:29:36;;;;;;;4.63;2.53;;;;;;;19.43;52.13;100211.13;4802550;29;20030;-81
2020/12/06 17:32:03;;;;;;;4.28;2.50;;;;;;;19.44;52.15;100200.59;4826357;29;20507;-78
2020/12/06 17:34:28;;;;;;;4.20;2.40;;;;;;;19.40;52.12;100192.81;4810516;29;20060;-80
2020/12/06 17:36:54;;;;;;;3.15;2.42;;;;;;;19.40;52.37;100204.16;4804075;29;20481;-78
2020/12/06 17:39:19;;;;;;;5.22;3.33;;;;;;;19.43;52.20;100201.50;4831284;29;20049;-80
2020/12/06 17:41:45;;;;;;;12.85;5.55;;;;;;;19.43;52.50;100191.00;4816586;29;20563;-75
2020/12/06 17:44:10;;;;;;;13.85;6.60;;;;;;;19.57;52.67;100215.25;4814058;29;20512;-76
2020/12/06 17:46:36;;;;;;;13.52;6.22;;;;;;;19.41;52.99;100182.28;4809069;29;20030;-78
2020/12/06 17:49:01;;;;;;;12.85;5.35;;;;;;;19.59;53.12;100210.84;4826347;29;20405;-78
2020/12/06 17:51:27;;;;;;;15.63;5.75;;;;;;;19.56;53.20;100210.88;4804432;29;20458;-77
2020/12/06 17:53:52;;;;;;;12.85;5.38;;;;;;;19.55;53.65;100206.53;4815215;29;20023;-78
2020/12/06 17:56:18;;;;;;;9.25;5.07;;;;;;;19.58;53.58;100208.22;4803461;29;20034;-78
2020/12/06 17:58:46;;;;;;;12.60;5.63;;;;;;;19.53;53.24;100210.94;4793322;29;20069;-76
2020/12/06 18:01:11;;;;;;;10.73;5.60;;;;;;;19.54;53.53;100214.41;4822412;29;20038;-77
2020/12/06 18:03:38;;;;;;;8.13;4.57;;;;;;;19.57;53.54;100212.63;4806024;29;20035;-79
2020/12/06 18:06:03;;;;;;;12.27;5.68;;;;;;;19.44;53.59;100197.09;4842451;29;20058;-79
2020/12/06 18:08:29;;;;;;;11.00;5.70;;;;;;;19.34;53.81;100177.22;4830508;29;20042;-78
2020/12/06 18:10:54;;;;;;;8.88;5.15;;;;;;;19.57;53.43;100199.50;4825000;29;20031;-78
2020/12/06 18:13:19;;;;;;;8.75;4.47;;;;;;;19.57;53.94;100211.75;4823001;29;20090;-78
2020/12/06 18:15:45;;;;;;;7.55;3.88;;;;;;;19.51;54.05;100199.59;4826076;29;20477;-79
2020/12/06 18:18:11;;;;;;;8.15;4.43;;;;;;;19.60;54.04;100207.28;4810402;29;20379;-77
2020/12/06 18:20:38;;;;;;;7.70;4.93;;;;;;;19.58;54.28;100206.47;4792880;29;20124;-77
2020/12/06 18:23:03;;;;;;;8.73;4.20;;;;;;;19.56;54.10;100200.38;4806097;29;20551;-76
2020/12/06 18:25:29;;;;;;;6.45;4.32;;;;;;;19.62;54.01;100195.00;4797463;29;20038;-76
2020/12/06 18:27:56;;;;;;;8.20;3.78;;;;;;;19.55;54.28;100195.19;4808014;29;20041;-76
2020/12/06 18:30:22;;;;;;;5.95;3.97;;;;;;;19.45;54.26;100176.09;4826955;29;20048;-77
2020/12/06 18:32:47;;;;;;;6.28;4.47;;;;;;;19.60;53.92;100188.09;4822839;29;20034;-78
2020/12/06 18:35:12;;;;;;;5.35;4.43;;;;;;;19.60;54.21;100186.31;4813045;29;20038;-78
2020/12/06 18:37:38;;;;;;;5.95;4.18;;;;;;;19.54;54.08;100181.19;4836483;29;20034;-77
2020/12/06 18:40:03;;;;;;;9.68;4.85;;;;;;;19.61;54.07;100174.06;4825961;29;20201;-76
2020/12/06 18:42:29;;;;;;;7.60;4.60;;;;;;;19.57;54.26;100162.78;4806830;29;20129;-76
2020/12/06 18:44:54;;;;;;;6.85;4.25;;;;;;;19.54;53.94;100165.47;4823343;29;20090;-77
2020/12/06 18:47:19;;;;;;;6.47;4.40;;;;;;;19.52;54.06;100143.63;4789814;29;20508;-77
2020/12/06 18:49:45;;;;;;;6.63;3.45;;;;;;;19.56;53.98;100154.94;4787293;29;20069;-77